Latest Weather Observations for Gympie

IDQ60801

Issued at 8:02 am EST Saturday 29 August 2015 (issued every 30 minutes, with the page automatically refreshed every 10 minutes)

About weather observations | Map of weather stations | Latest weather observations for QLD | Other Formats
Station Details ID: 040093 Name: GYMPIE Lat: -26.18 Lon: 152.64 Height: 64.5 m
Data from the previous 72 hours. | See also: Recent months at Gympie
Date/Time
EST
Temp
°C
App
Temp
°C
Dew
Point
Rel
Hum
%
Delta-T
°C
Wind Press
QNH
hPa
Press
MSL
hPa
Rain
since 9 am
mm
Dir
 
Spd
km/h
Gust
km/h
Spd
kts
Gust
kts
29/08:00am 15.5 15.4 12.1 80 1.8 S 4 6 2 3 1022.7 1022.7 0.2
29/07:30am 14.3 14.5 12.0 86 1.2 SE 2 6 1 3 1022.4 1022.4 0.2
29/07:00am 13.3 13.8 11.7 90 0.9 CALM 0 0 0 0 1022.5 1022.5 0.2
29/06:30am 13.0 13.6 11.9 93 0.6 CALM 0 0 0 0 1022.0 1022.0 0.2
29/06:00am 12.8 13.5 12.2 96 0.3 CALM 0 0 0 0 1022.0 1022.0 0.2
29/05:30am 12.6 13.2 12.0 96 0.3 CALM 0 0 0 0 1021.5 1021.5 0.2
29/05:00am 12.9 13.6 12.3 96 0.3 CALM 0 0 0 0 1021.0 1021.0 0.2
29/04:30am 12.9 13.6 12.3 96 0.3 CALM 0 0 0 0 1020.9 1020.9 0.2
29/04:00am 13.2 13.7 12.7 97 0.3 SE 2 4 1 2 1020.9 1020.9 0.2
29/03:30am 13.3 14.2 12.8 97 0.3 CALM 0 0 0 0 1021.2 1021.2 0.2
29/03:00am 13.3 13.8 12.8 97 0.3 ESE 2 4 1 2 1021.5 1021.5 0.2
29/02:30am 13.1 13.5 12.6 97 0.3 SE 2 4 1 2 1021.6 1021.6 0.2
29/02:00am 13.5 14.4 13.0 97 0.3 CALM 0 0 0 0 1021.9 1021.9 0.2
29/01:30am 13.9 15.0 13.4 97 0.3 CALM 0 0 0 0 1022.3 1022.3 0.2
29/01:00am 13.9 14.9 13.3 96 0.3 CALM 0 0 0 0 1022.0 1022.0 0.2
29/12:30am 14.2 15.3 13.6 96 0.3 CALM 0 0 0 0 1022.6 1022.6 0.2
29/12:00am 14.2 15.3 13.6 96 0.3 CALM 0 2 0 1 1022.1 1022.1 0.2
 
Date/Time
EST
Temp
°C
App
Temp
°C
Dew
Point
Rel
Hum
%
Delta-T
°C
Wind Press
QNH
hPa
Press
MSL
hPa
Rain
since 9 am
mm
Dir
 
Spd
km/h
Gust
km/h
Spd
kts
Gust
kts
28/11:30pm 14.5 15.7 13.7 95 0.4 CALM 0 4 0 2 1022.2 1022.2 0.2
28/11:00pm 14.3 15.3 13.3 94 0.6 CALM 0 0 0 0 1022.1 1022.1 0.2
28/10:30pm 14.8 16.1 14.0 95 0.5 CALM 0 0 0 0 1022.2 1022.2 0.2
28/10:00pm 14.8 15.6 13.7 93 0.6 SSE 2 6 1 3 1021.9 1021.9 0.2
28/09:30pm 15.7 17.0 14.2 91 0.9 CALM 0 0 0 0 1022.2 1022.2 0.2
28/09:00pm 16.1 17.4 14.1 88 1.1 CALM 0 2 0 1 1022.4 1022.4 0.2
28/08:30pm 17.0 18.4 14.3 84 1.5 CALM 0 0 0 0 1022.1 1022.1 0.2
28/08:00pm 17.4 19.0 15.0 86 1.4 CALM 0 0 0 0 1022.0 1022.0 0.2
28/07:30pm 17.2 18.7 14.7 85 1.4 CALM 0 0 0 0 1021.2 1021.2 0.2
28/07:00pm 17.8 19.2 14.5 81 1.9 CALM 0 0 0 0 1020.7 1020.7 0.2
28/06:30pm 18.6 19.5 14.1 75 2.6 ENE 2 6 1 3 1020.3 1020.3 0.2
28/06:00pm 18.9 19.6 14.4 75 2.6 ENE 4 9 2 5 1019.7 1019.7 0.2
28/05:30pm 19.6 20.5 15.0 75 2.7 ENE 4 7 2 4 1019.2 1019.2 0.2
28/05:00pm 20.2 20.3 15.4 74 2.8 E 9 17 5 9 1018.9 1018.9 0.2
28/04:30pm 20.8 21.5 16.0 74 2.9 ENE 7 15 4 8 1018.6 1018.6 0.2
28/04:00pm 21.6 21.8 16.8 74 2.9 E 11 17 6 9 1018.2 1018.2 0.2
28/03:30pm 22.9 23.5 16.7 68 3.8 SE 9 17 5 9 1018.1 1018.1 0.2
28/03:00pm 24.0 25.2 15.8 60 5.0 SE 4 7 2 4 1018.0 1018.0 0.2
28/02:30pm 23.8 25.0 15.8 61 4.8 SSW 4 7 2 4 1018.1 1018.1 0.2
28/02:00pm 24.3 25.4 15.5 58 5.3 ESE 4 6 2 3 1018.3 1018.3 0.2
28/01:30pm 24.2 25.1 16.2 61 4.9 SE 6 9 3 5 1018.6 1018.6 0.2
28/01:00pm 23.8 25.3 15.8 61 4.8 S 2 6 1 3 1019.1 1019.1 0.2
28/12:30pm 23.8 25.5 16.1 62 4.7 SSE 2 6 1 3 1019.4 1019.4 0.2
28/12:00pm 23.8 24.8 16.3 63 4.6 SE 6 9 3 5 1020.0 1020.0 0.2
28/11:30am 23.6 24.6 16.4 64 4.4 SSW 6 7 3 4 1020.6 1020.6 0.2
28/11:00am 22.9 23.8 16.2 66 4.1 ESE 6 11 3 6 1021.3 1021.3 0.2
28/10:30am 22.2 23.7 15.8 67 3.9 SSE 2 9 1 5 1021.7 1021.7 0.0
28/10:00am 21.6 23.1 16.6 73 3.0 ESE 4 7 2 4 1021.9 1021.9 0.0
28/09:30am 20.6 22.6 17.0 80 2.2 ESE 2 9 1 5 1022.4 1022.4 0.0
28/09:00am 18.7 20.1 16.5 87 1.3 SSE 4 6 2 3 1022.3 1022.3 0.6
28/08:30am 17.9 20.1 16.4 91 0.9 CALM 0 4 0 2 1022.1 1022.1 0.6
28/08:00am 17.4 19.6 16.4 94 0.6 CALM 0 2 0 1 1022.0 1022.0 0.6
28/07:30am 16.8 18.9 16.2 96 0.4 CALM 0 0 0 0 1021.8 1021.8 0.6
28/07:00am 16.6 18.6 16.1 97 0.3 CALM 0 0 0 0 1021.3 1021.3 0.6
28/06:30am 16.2 18.0 15.6 96 0.4 CALM 0 0 0 0 1021.2 1021.2 0.6
28/06:00am 16.2 17.3 15.7 97 0.3 SW 4 7 2 4 1020.7 1020.7 0.6
28/05:30am 16.1 17.8 15.3 95 0.5 CALM 0 0 0 0 1020.1 1020.1 0.6
28/05:00am 16.3 18.1 15.5 95 0.5 CALM 0 4 0 2 1020.4 1020.4 0.6
28/04:30am 16.3 18.1 15.5 95 0.5 CALM 0 0 0 0 1020.1 1020.1 0.6
28/04:00am 16.2 17.6 15.4 95 0.5 N 2 4 1 2 1020.0 1020.0 0.6
28/03:30am 16.2 18.0 15.4 95 0.5 CALM 0 0 0 0 1019.9 1019.9 0.6
28/03:00am 16.2 18.0 15.6 96 0.3 CALM 0 0 0 0 1019.9 1019.9 0.6
28/02:30am 16.1 17.8 15.3 95 0.5 CALM 0 0 0 0 1020.1 1020.1 0.6
28/02:00am 16.0 17.7 15.2 95 0.5 CALM 0 0 0 0 1020.2 1020.2 0.6
28/01:30am 16.0 17.7 15.2 95 0.5 CALM 0 0 0 0 1020.6 1020.6 0.6
28/01:00am 16.2 18.0 15.6 96 0.3 CALM 0 0 0 0 1021.0 1021.0 0.6
28/12:30am 16.1 17.5 15.3 95 0.5 ENE 2 4 1 2 1021.1 1021.1 0.6
28/12:00am 16.2 18.0 15.4 95 0.5 CALM 0 0 0 0 1021.3 1021.3 0.6
 
Date/Time
EST
Temp
°C
App
Temp
°C
Dew
Point
Rel
Hum
%
Delta-T
°C
Wind Press
QNH
hPa
Press
MSL
hPa
Rain
since 9 am
mm
Dir
 
Spd
km/h
Gust
km/h
Spd
kts
Gust
kts
27/11:30pm 16.1 17.8 15.3 95 0.5 CALM 0 4 0 2 1021.5 1021.5 0.6
27/11:00pm 16.0 17.8 15.4 96 0.3 CALM 0 4 0 2 1021.5 1021.5 0.6
27/10:30pm 16.1 17.2 15.5 96 0.4 WSW 4 9 2 5 1021.3 1021.3 0.6
27/10:00pm 16.4 18.2 15.6 95 0.5 CALM 0 0 0 0 1021.1 1021.1 0.6
27/09:30pm 16.5 18.3 15.5 94 0.6 CALM 0 0 0 0 1021.2 1021.2 0.6
27/09:00pm 16.6 18.1 15.6 94 0.6 WSW 2 2 1 1 1021.4 1021.4 0.6
27/08:30pm 16.5 18.1 15.0 91 0.9 CALM 0 0 0 0 1021.9 1021.9 0.6
27/08:00pm 16.8 18.5 15.2 90 0.9 CALM 0 0 0 0 1021.8 1021.8 0.6
27/07:30pm 17.2 18.6 15.5 90 1.0 W 2 6 1 3 1021.5 1021.5 0.2
27/07:00pm 17.3 19.0 15.1 87 1.3 CALM 0 0 0 0 1021.1 1021.1 0.2
27/06:30pm 17.3 18.9 14.9 86 1.4 CALM 0 4 0 2 1020.8 1020.8 0.2
27/06:00pm 17.3 18.1 14.8 85 1.4 SE 4 6 2 3 1020.6 1020.6 0.2
27/05:30pm 17.1 17.6 15.1 88 1.2 SE 6 11 3 6 1020.2 1020.2 0.2
27/05:00pm 17.3 17.7 15.3 88 1.2 SE 7 13 4 7 1019.9 1019.9 0.2
27/04:30pm 17.1 16.9 15.6 91 0.9 SSE 11 15 6 8 1019.5 1019.5 0.2
27/04:00pm 17.4 17.5 15.4 88 1.2 SSE 9 13 5 7 1019.1 1019.1 0.2
27/03:30pm 20.1 19.4 15.5 75 2.7 SSW 13 24 7 13 1018.5 1018.5 0.0
27/03:00pm 24.4 27.0 18.3 69 3.8 SSW 2 4 1 2 1017.9 1017.9 0.0
27/02:30pm 24.8 26.4 17.8 65 4.4 WSW 6 9 3 5 1018.1 1018.1 0.0
27/02:00pm 25.0 26.5 17.5 63 4.7 NNW 6 11 3 6 1018.3 1018.3 0.0
27/01:30pm 25.1 27.1 17.8 64 4.6 NNE 4 6 2 3 1018.5 1018.5 0.0
27/01:00pm 24.6 26.4 17.3 64 4.5 WSW 4 7 2 4 1018.8 1018.8 0.0
27/12:30pm 23.9 26.3 17.9 69 3.8 NNW 2 4 1 2 1019.5 1019.5 0.0
27/12:00pm 23.6 25.5 17.6 69 3.7 SSE 4 7 2 4 1019.7 1019.7 0.0
27/11:30am 23.1 25.2 18.0 73 3.2 W 4 6 2 3 1020.3 1020.3 0.0
27/11:00am 22.6 25.2 17.5 73 3.2 CALM 0 2 0 1 1020.7 1020.7 0.0
27/10:30am 22.2 24.5 17.6 75 2.9 SSE 2 4 1 2 1021.0 1021.0 0.0
27/10:00am 21.7 23.6 17.7 78 2.5 SW 4 6 2 3 1021.0 1021.0 0.0
27/09:30am 21.8 24.2 18.0 79 2.4 SSW 2 4 1 2 1021.1 1021.1 0.0
27/09:00am 20.3 23.2 18.2 88 1.3 CALM 0 0 0 0 1021.3 1021.3 0.0
27/08:30am 19.8 22.4 18.5 92 0.8 SE 2 6 1 3 1021.0 1021.0 0.0
27/08:00am 19.3 21.9 18.5 95 0.5 SE 2 4 1 2 1020.9 1020.9 0.0
27/07:30am 18.7 20.8 18.0 96 0.4 N 4 6 2 3 1021.3 1021.3 0.0
27/07:00am 17.9 19.4 17.6 98 0.2 N 6 7 3 4 1021.5 1021.5 0.0
27/06:30am 17.2 19.5 16.7 97 0.3 CALM 0 0 0 0 1021.4 1021.4 0.0
27/06:00am 17.2 19.4 16.6 96 0.4 CALM 0 0 0 0 1021.0 1021.0 0.0
27/05:30am 17.6 20.0 17.0 96 0.4 CALM 0 0 0 0 1020.6 1020.6 0.0
27/05:00am 18.2 20.5 17.7 97 0.3 N 2 4 1 2 1020.4 1020.4 0.0
27/04:30am 18.0 19.7 17.2 95 0.5 N 4 7 2 4 1020.4 1020.4 0.0
27/04:00am 18.1 19.9 17.5 96 0.4 N 4 6 2 3 1020.3 1020.3 0.0
27/03:30am 18.1 19.9 17.3 95 0.5 W 4 6 2 3 1020.4 1020.4 0.0
27/03:00am 18.5 20.9 17.0 91 0.9 CALM 0 0 0 0 1020.2 1020.2 0.0
27/02:30am 19.0 21.4 17.0 88 1.2 CALM 0 0 0 0 1020.4 1020.4 0.0
27/02:00am 19.5 21.0 17.6 89 1.2 NNW 6 9 3 5 1020.7 1020.7 0.0
27/01:30am 19.7 21.2 17.7 88 1.2 NNW 6 11 3 6 1021.1 1021.1 0.0
27/01:00am 19.7 21.2 17.5 87 1.3 NW 6 9 3 5 1021.3 1021.3 0.0
27/12:30am 19.6 22.2 17.4 87 1.3 CALM 0 0 0 0 1021.4 1021.4 0.0
27/12:00am 19.7 21.8 17.3 86 1.5 SE 2 4 1 2 1021.6 1021.6 0.0
 
Date/Time
EST
Temp
°C
App
Temp
°C
Dew
Point
Rel
Hum
%
Delta-T
°C
Wind Press
QNH
hPa
Press
MSL
hPa
Rain
since 9 am
mm
Dir
 
Spd
km/h
Gust
km/h
Spd
kts
Gust
kts
26/11:30pm 19.7 22.2 17.3 86 1.5 CALM 0 6 0 3 1021.7 1021.7 0.0
26/11:00pm 20.1 22.2 17.3 84 1.7 NNW 2 7 1 4 1021.8 1021.8 0.0
26/10:30pm 19.9 20.8 17.5 86 1.5 N 9 15 5 8 1021.7 1021.7 0.0
26/10:00pm 19.5 21.7 17.5 88 1.2 NNE 2 6 1 3 1021.7 1021.7 0.0
26/09:30pm 19.1 21.5 17.1 88 1.2 CALM 0 0 0 0 1021.6 1021.6 0.0
26/09:00pm 19.7 22.0 17.7 88 1.2 NNE 2 2 1 1 1021.6 1021.6 0.0
26/08:30pm 20.1 22.0 17.7 86 1.5 N 4 6 2 3 1021.3 1021.3 0.0
26/08:00pm 20.9 22.5 17.9 83 1.9 NE 6 7 3 4 1021.0 1021.0 0.0
26/07:30pm 21.4 23.7 17.8 80 2.2 ENE 2 4 1 2 1020.8 1020.8 0.0
26/07:00pm 22.1 24.3 18.3 79 2.4 NNE 4 9 2 5 1020.0 1020.0 0.0
26/06:30pm 22.5 24.1 18.3 77 2.6 NE 7 13 4 7 1019.3 1019.3 0.0
26/06:00pm 23.2 24.9 18.5 75 3.0 NE 7 11 4 6 1018.7 1018.7 0.0
26/05:30pm 24.1 25.4 18.5 71 3.5 NE 9 15 5 8 1018.1 1018.1 0.0
26/05:00pm 25.6 27.1 17.5 61 5.1 NE 6 13 3 7 1017.7 1017.7 0.0
26/04:30pm 26.7 27.0 16.9 55 6.1 NNE 11 17 6 9 1017.2 1017.2 0.0
26/04:00pm 27.6 28.2 16.9 52 6.7 NNE 9 20 5 11 1016.9 1016.9 0.0
26/03:30pm 27.7 28.3 16.9 51 6.8 N 9 17 5 9 1016.8 1016.8 0.0
26/03:00pm 27.5 28.1 16.8 52 6.7 N 9 17 5 9 1017.1 1017.1 0.0
26/02:30pm 27.3 28.4 16.6 52 6.7 NW 6 11 3 6 1017.4 1017.4 0.0
26/02:00pm 27.6 28.6 17.7 54 6.3 N 9 17 5 9 1017.8 1017.8 0.0
26/01:30pm 26.7 27.7 16.9 55 6.1 NNE 7 11 4 6 1018.1 1018.1 0.0
26/01:00pm 26.5 28.0 17.6 58 5.6 NNE 6 13 3 7 1018.8 1018.8 0.0
26/12:30pm 24.9 25.0 16.6 60 5.1 N 11 19 6 10 1019.3 1019.3 0.0
26/12:00pm 24.8 25.2 17.3 63 4.7 NNW 11 17 6 9 1020.2 1020.2 0.0
26/11:30am 23.2 24.3 17.0 68 3.8 NNW 7 15 4 8 1020.7 1020.7 0.0
26/11:00am 23.0 24.3 17.2 70 3.6 N 6 11 3 6 1021.0 1021.0 0.0
26/10:30am 22.4 23.6 16.9 71 3.4 N 6 11 3 6 1021.3 1021.3 0.0
26/10:00am 21.4 23.6 17.4 78 2.5 SSE 2 6 1 3 1021.7 1021.7 0.0
26/09:30am 19.4 22.0 17.4 88 1.2 CALM 0 4 0 2 1022.0 1022.0 0.0
26/09:00am 18.5 20.9 18.0 97 0.3 WSW 2 4 1 2 1021.9 1021.9 0.0
26/08:30am 17.7 20.3 17.5 99 0.1 CALM 0 0 0 0 1022.0 1022.0 0.0

Other Formats:

Comma delimited format used in spreadsheet applications
http://www.bom.gov.au/fwo/IDQ60801/IDQ60801.94566.axf

JavaScript Object Notation format (JSON) in row-major order
http://www.bom.gov.au/fwo/IDQ60801/IDQ60801.94566.json